Time;durP1;ratioP1;P1;durP2;ratioP2;P2;SDS_P1;SDS_P2;PMS_P1;PMS_P2;Temp;Humidity;BMP_temperature;BMP_pressure;BME280_temperature;BME280_humidity;BME280_pressure;Samples;Min_cycle;Max_cycle;Signal;HPM_P1;HPM_P2
2022/07/19 00:02:16;;;;;;;2.30;2.10;;;;;;;22.92;46.31;101195.50;5074527;28;20673;-72
2022/07/19 00:04:43;;;;;;;2.37;1.87;;;;;;;22.92;46.16;101187.50;5074287;28;20209;-72
2022/07/19 00:07:09;;;;;;;2.20;1.90;;;;;;;22.90;46.40;101182.25;5074571;28;20201;-72
2022/07/19 00:09:37;;;;;;;2.40;2.10;;;;;;;22.90;46.90;101173.44;5074097;28;20232;-72
2022/07/19 00:12:04;;;;;;;2.93;1.90;;;;;;;22.86;46.95;101158.59;5074236;28;20227;-72
2022/07/19 00:14:30;;;;;;;2.23;1.80;;;;;;;22.82;46.99;101157.91;5074266;28;20670;-72
2022/07/19 00:16:57;;;;;;;2.93;1.73;;;;;;;22.77;47.20;101150.19;5074317;28;20282;-72
2022/07/19 00:19:23;;;;;;;3.10;1.70;;;;;;;22.70;47.06;101161.28;5074125;28;20600;-72
2022/07/19 00:21:50;;;;;;;2.33;1.80;;;;;;;22.63;46.73;101155.44;5074350;28;20631;-73
2022/07/19 00:24:16;;;;;;;1.67;1.50;;;;;;;22.61;47.34;101170.66;5073862;28;20280;-73
2022/07/19 00:26:44;;;;;;;1.80;1.70;;;;;;;22.56;47.26;101164.75;5073765;28;20212;-73
2022/07/19 00:29:10;;;;;;;2.47;1.80;;;;;;;22.49;47.63;101156.25;5074178;28;20259;-72
2022/07/19 00:31:37;;;;;;;1.80;1.70;;;;;;;22.45;47.62;101151.19;5073899;28;20783;-72
2022/07/19 00:34:03;;;;;;;2.20;1.77;;;;;;;22.41;47.73;101150.50;5073967;28;20674;-72
2022/07/19 00:36:30;;;;;;;2.93;1.90;;;;;;;22.40;47.84;101135.50;5073420;28;20670;-72
2022/07/19 00:38:56;;;;;;;2.27;1.60;;;;;;;22.41;48.05;101135.41;5073554;28;20247;-72
2022/07/19 00:41:23;;;;;;;2.70;1.90;;;;;;;22.39;47.96;101136.44;5073999;28;20201;-72
2022/07/19 00:43:51;;;;;;;2.17;2.00;;;;;;;22.35;47.98;101138.41;5073994;28;20205;-72
2022/07/19 00:46:20;;;;;;;4.57;2.27;;;;;;;22.28;48.00;101133.53;5073465;28;20207;-73
2022/07/19 00:48:47;;;;;;;2.30;2.10;;;;;;;22.16;47.82;101135.03;5073889;28;20278;-72
2022/07/19 00:51:15;;;;;;;1.90;1.60;;;;;;;22.10;48.01;101135.38;5073645;28;20258;-72
2022/07/19 00:53:43;;;;;;;2.40;2.00;;;;;;;22.07;48.40;101128.44;5073393;28;20201;-72
2022/07/19 00:56:12;;;;;;;2.27;2.07;;;;;;;22.06;48.46;101125.88;5073574;28;20212;-72
2022/07/19 00:58:41;;;;;;;2.83;1.73;;;;;;;22.01;48.78;101123.47;5073564;28;20256;-72
2022/07/19 01:01:09;;;;;;;2.23;1.80;;;;;;;21.96;48.57;101120.22;5073855;28;20252;-72
2022/07/19 01:03:39;;;;;;;2.30;1.53;;;;;;;21.90;48.35;101129.41;5073374;28;20663;-72
2022/07/19 01:06:07;;;;;;;1.63;1.40;;;;;;;21.90;48.85;101123.22;5073061;28;20703;-72
2022/07/19 01:08:35;;;;;;;1.67;1.57;;;;;;;21.88;48.76;101125.09;5073137;28;20290;-72
2022/07/19 01:11:03;;;;;;;2.80;2.10;;;;;;;21.84;48.95;101120.91;5073354;28;20235;-72
2022/07/19 01:13:30;;;;;;;1.90;1.70;;;;;;;21.82;49.48;101120.97;5073290;28;20204;-72
2022/07/19 01:15:56;;;;;;;2.77;1.90;;;;;;;21.75;49.52;101109.84;5073008;28;20213;-72
2022/07/19 01:18:24;;;;;;;1.77;1.63;;;;;;;21.68;49.31;101115.56;5073136;28;20271;-72
2022/07/19 01:20:51;;;;;;;2.70;1.93;;;;;;;21.63;49.86;101115.84;5073060;28;20204;-72
2022/07/19 01:23:19;;;;;;;2.10;1.77;;;;;;;21.62;49.67;101106.13;5073083;28;20262;-72
2022/07/19 01:25:45;;;;;;;2.07;1.87;;;;;;;21.55;50.15;101094.13;5072812;28;20620;-72
2022/07/19 01:28:12;;;;;;;1.73;1.63;;;;;;;21.55;50.38;101094.13;5072644;28;20705;-72
2022/07/19 01:30:38;;;;;;;2.13;1.73;;;;;;;21.53;50.20;101093.38;5072895;28;20209;-72
2022/07/19 01:33:05;;;;;;;3.47;2.20;;;;;;;21.50;50.20;101090.84;5072768;28;20718;-72
2022/07/19 01:35:31;;;;;;;2.17;1.83;;;;;;;21.42;50.28;101094.75;5072338;28;20200;-72
2022/07/19 01:37:58;;;;;;;1.83;1.70;;;;;;;21.37;50.45;101095.97;5072690;28;20241;-72
2022/07/19 01:40:26;;;;;;;2.67;1.90;;;;;;;21.27;49.68;101092.06;5072713;28;20254;-72
2022/07/19 01:42:53;;;;;;;4.80;2.40;;;;;;;21.15;49.10;101122.75;5072731;28;20205;-72
2022/07/19 01:45:20;;;;;;;3.17;1.40;;;;;;;21.22;49.31;101122.38;5072262;28;20217;-72
2022/07/19 01:47:47;;;;;;;2.13;1.77;;;;;;;21.22;49.48;101124.16;5072389;28;20274;-73
2022/07/19 01:50:16;;;;;;;2.30;2.03;;;;;;;21.15;50.39;101113.03;5072899;28;20254;-73
2022/07/19 01:52:43;;;;;;;2.97;1.93;;;;;;;21.12;51.18;101099.91;5072486;28;20247;-73
2022/07/19 01:55:09;;;;;;;1.70;1.60;;;;;;;21.08;50.97;101084.22;5071904;28;20209;-73
2022/07/19 01:57:37;;;;;;;2.03;1.73;;;;;;;21.05;51.27;101081.72;5072411;28;20258;-73
2022/07/19 02:00:05;;;;;;;1.90;1.70;;;;;;;20.91;51.19;101074.47;5072107;28;20228;-73
2022/07/19 02:02:31;;;;;;;1.70;1.60;;;;;;;20.89;50.95;101085.19;5072413;28;20216;-73
2022/07/19 02:04:58;;;;;;;1.67;1.57;;;;;;;20.81;51.18;101080.28;5071965;28;20205;-74
2022/07/19 02:07:24;;;;;;;2.40;2.20;;;;;;;20.82;50.50;101094.41;5072076;28;20266;-73
2022/07/19 02:09:51;;;;;;;2.70;1.80;;;;;;;20.70;50.54;101103.00;5072216;28;20225;-73
2022/07/19 02:12:17;;;;;;;2.03;1.60;;;;;;;20.62;50.79;101101.56;5071962;28;20639;-73
2022/07/19 02:14:45;;;;;;;2.30;2.03;;;;;;;20.55;51.30;101102.78;5071611;28;20210;-73
2022/07/19 02:17:11;;;;;;;3.30;1.73;;;;;;;20.52;51.47;101091.47;5071870;28;20211;-73
2022/07/19 02:19:38;;;;;;;4.03;1.73;;;;;;;20.55;51.76;101086.00;5071991;28;20220;-73
2022/07/19 02:22:04;;;;;;;2.50;1.67;;;;;;;20.51;51.58;101080.00;5072262;28;20205;-73
2022/07/19 02:24:31;;;;;;;2.57;1.77;;;;;;;20.52;50.99;101092.34;5071914;28;20209;-74
2022/07/19 02:26:57;;;;;;;1.80;1.60;;;;;;;20.57;50.66;101100.03;5071847;28;20304;-74
2022/07/19 02:29:24;;;;;;;3.13;1.77;;;;;;;20.57;50.56;101103.56;5071429;28;20278;-73
2022/07/19 02:31:52;;;;;;;3.20;1.97;;;;;;;20.60;50.63;101116.72;5072096;28;20290;-74
2022/07/19 02:34:18;;;;;;;9.13;2.20;;;;;;;20.59;50.88;101109.69;5071901;28;20213;-74
2022/07/19 02:36:45;;;;;;;2.50;1.80;;;;;;;20.55;51.09;101102.78;5071686;28;20238;-73
2022/07/19 02:39:11;;;;;;;2.20;2.00;;;;;;;20.50;51.66;101096.84;5071701;28;20259;-73
2022/07/19 02:41:38;;;;;;;1.50;1.40;;;;;;;20.38;52.20;101084.22;5072114;28;20212;-73
2022/07/19 02:44:04;;;;;;;6.17;1.93;;;;;;;20.35;52.10;101076.41;5071540;28;20257;-74
2022/07/19 02:46:31;;;;;;;2.27;1.97;;;;;;;20.29;52.07;101074.06;5071493;28;20208;-73
2022/07/19 02:48:58;;;;;;;2.50;2.00;;;;;;;20.23;52.53;101083.16;5071935;28;20281;-73
2022/07/19 02:51:25;;;;;;;1.70;1.60;;;;;;;20.16;53.08;101064.06;5071709;28;20208;-73
2022/07/19 02:53:52;;;;;;;1.83;1.50;;;;;;;20.14;53.47;101043.88;5071780;28;20212;-73
2022/07/19 02:56:18;;;;;;;2.40;1.70;;;;;;;20.11;53.61;101038.69;5071378;28;20202;-73
2022/07/19 02:58:45;;;;;;;3.10;1.50;;;;;;;20.03;54.09;101033.78;5071285;28;20638;-73
2022/07/19 03:01:11;;;;;;;2.50;1.83;;;;;;;20.08;53.84;101029.13;5071651;28;20212;-73
2022/07/19 03:03:47;;;;;;;2.33;1.53;;;;;;;19.99;53.89;101034.84;5071518;28;20666;-74
2022/07/19 03:06:18;;;;;;;2.97;1.50;;;;;;;19.96;54.45;101027.94;5071297;28;20254;-74
2022/07/19 03:08:45;;;;;;;2.53;1.80;;;;;;;19.99;54.63;101016.31;5071554;28;20228;-74
2022/07/19 03:11:12;;;;;;;2.03;1.70;;;;;;;20.04;54.48;101006.34;5070915;28;20201;-74
2022/07/19 03:13:38;;;;;;;1.90;1.67;;;;;;;20.06;54.38;101016.84;5071120;28;20217;-74
2022/07/19 03:16:06;;;;;;;1.70;1.60;;;;;;;20.06;54.20;101019.50;5070509;28;20720;-73
2022/07/19 03:18:32;;;;;;;2.07;1.50;;;;;;;20.02;53.93;101019.66;5071230;28;20273;-73
2022/07/19 03:20:59;;;;;;;2.40;1.70;;;;;;;19.94;53.86;101037.75;5071215;28;20204;-73
2022/07/19 03:23:28;;;;;;;2.07;1.87;;;;;;;19.93;54.06;101036.00;5071008;28;20189;-73
2022/07/19 03:25:55;;;;;;;3.87;2.17;;;;;;;19.84;54.22;101039.09;5071041;28;20201;-73
2022/07/19 03:28:21;;;;;;;1.77;1.67;;;;;;;19.78;54.64;101024.38;5071146;28;20298;-73
2022/07/19 03:30:48;;;;;;;1.70;1.60;;;;;;;19.80;54.74;101019.88;5073616;28;20197;-73
2022/07/19 03:33:15;;;;;;;1.67;1.57;;;;;;;19.80;54.24;101019.88;5074804;28;20221;-73
2022/07/19 03:35:42;;;;;;;2.60;1.67;;;;;;;19.65;54.94;101012.63;5074364;28;20205;-73
2022/07/19 03:38:09;;;;;;;2.80;1.60;;;;;;;19.65;55.21;100996.72;5074572;28;20220;-73
2022/07/19 03:40:37;;;;;;;2.30;1.60;;;;;;;19.66;55.39;101001.06;5074778;28;20258;-74
2022/07/19 03:43:03;;;;;;;2.50;1.83;;;;;;;19.70;54.94;101004.44;5074937;28;20201;-73
2022/07/19 03:45:30;;;;;;;2.13;1.77;;;;;;;19.72;54.54;101003.47;5074236;28;20751;-74
2022/07/19 03:47:56;;;;;;;1.70;1.60;;;;;;;19.70;54.96;101012.38;5074236;28;20258;-74
2022/07/19 03:50:23;;;;;;;1.80;1.70;;;;;;;19.70;55.18;101013.25;5074461;28;20197;-74
2022/07/19 03:52:49;;;;;;;3.23;1.70;;;;;;;19.65;55.14;101009.97;5073926;28;20263;-74
2022/07/19 03:55:15;;;;;;;1.70;1.60;;;;;;;19.68;55.46;101004.50;5074327;28;20216;-74
2022/07/19 03:57:43;;;;;;;1.70;1.60;;;;;;;19.61;55.41;101008.41;5074101;28;20250;-74
2022/07/19 04:00:10;;;;;;;2.10;1.90;;;;;;;19.60;54.87;101020.78;5074117;28;20225;-74
2022/07/19 04:02:36;;;;;;;2.10;1.50;;;;;;;19.65;54.93;101029.34;5074343;28;20204;-74
2022/07/19 04:05:03;;;;;;;1.80;1.70;;;;;;;19.68;54.88;101028.34;5074378;28;20250;-74
2022/07/19 04:07:30;;;;;;;3.03;2.00;;;;;;;19.58;55.52;101030.59;5074400;28;20227;-74
2022/07/19 04:09:56;;;;;;;3.97;1.70;;;;;;;19.61;55.54;101021.63;5074682;28;20270;-74
2022/07/19 04:12:22;;;;;;;2.40;1.90;;;;;;;19.67;55.47;101020.50;5074608;28;20225;-74
2022/07/19 04:14:50;;;;;;;2.10;1.80;;;;;;;19.66;55.24;101022.25;5074021;28;20258;-74
2022/07/19 04:17:17;;;;;;;1.67;1.57;;;;;;;19.64;55.61;101030.31;5074480;28;20239;-74
2022/07/19 04:19:43;;;;;;;2.03;1.60;;;;;;;19.64;56.12;101025.00;5074583;28;20770;-74
2022/07/19 04:22:10;;;;;;;2.23;1.80;;;;;;;19.64;56.17;101011.75;5074275;28;20346;-74
2022/07/19 04:24:36;;;;;;;2.07;1.90;;;;;;;19.68;56.32;101001.00;5074230;28;20666;-74
2022/07/19 04:27:02;;;;;;;3.00;2.00;;;;;;;19.72;56.71;101002.59;5073978;28;20270;-74
2022/07/19 04:29:29;;;;;;;2.00;1.80;;;;;;;19.71;56.56;100998.22;5074096;28;20278;-74
2022/07/19 04:31:57;;;;;;;1.90;1.73;;;;;;;19.75;56.79;100995.38;5074136;28;20205;-74
2022/07/19 04:34:23;;;;;;;2.93;2.00;;;;;;;19.78;57.17;100984.63;5073885;28;20223;-74
2022/07/19 04:36:50;;;;;;;2.00;1.80;;;;;;;19.77;56.98;100998.81;5073262;28;20205;-74
2022/07/19 04:39:16;;;;;;;1.90;1.73;;;;;;;19.79;56.86;100982.84;5073532;28;20227;-74
2022/07/19 04:41:42;;;;;;;1.80;1.70;;;;;;;19.75;57.28;100992.72;5073597;28;20247;-74
2022/07/19 04:44:09;;;;;;;3.57;1.70;;;;;;;19.83;56.76;100989.72;5073695;28;20208;-75
2022/07/19 04:46:35;;;;;;;2.37;2.07;;;;;;;19.88;56.87;101000.94;5073383;28;20267;-74
2022/07/19 04:49:03;;;;;;;4.43;2.20;;;;;;;19.92;57.89;101001.63;5073827;28;20231;-73
2022/07/19 04:51:29;;;;;;;2.30;2.10;;;;;;;19.96;57.67;100977.56;5073617;28;20690;-73
2022/07/19 04:53:56;;;;;;;5.27;2.00;;;;;;;20.05;57.53;100981.56;5073946;28;20225;-73
2022/07/19 04:56:22;;;;;;;2.10;1.83;;;;;;;20.02;56.24;101005.56;5073371;28;20201;-74
2022/07/19 04:58:49;;;;;;;1.87;1.77;;;;;;;20.08;55.02;101050.31;5073675;28;20229;-74
2022/07/19 05:01:15;;;;;;;3.53;1.97;;;;;;;20.09;55.03;101070.56;5072970;28;20200;-73
2022/07/19 05:03:42;;;;;;;3.00;2.00;;;;;;;20.13;55.97;101056.25;5073379;28;20258;-73
2022/07/19 05:06:10;;;;;;;3.67;2.03;;;;;;;20.12;55.78;101048.34;5073120;28;20193;-73
2022/07/19 05:08:36;;;;;;;8.33;2.50;;;;;;;20.16;55.95;101053.44;5073526;28;20221;-73
2022/07/19 05:11:03;;;;;;;1.90;1.80;;;;;;;20.18;56.04;101046.28;5073541;28;20231;-73
2022/07/19 05:13:29;;;;;;;2.83;2.10;;;;;;;20.20;56.10;101047.06;5073306;28;20270;-73
2022/07/19 05:15:56;;;;;;;2.70;1.70;;;;;;;20.23;56.35;101041.59;5072699;28;20744;-73
2022/07/19 05:18:22;;;;;;;2.93;2.00;;;;;;;20.11;57.00;101018.34;5073032;28;20235;-73
2022/07/19 05:20:49;;;;;;;2.20;2.00;;;;;;;19.70;57.14;101038.88;5073392;28;20211;-73
2022/07/19 05:23:16;;;;;;;3.50;1.80;;;;;;;19.74;56.44;101032.53;5073227;28;20204;-73
2022/07/19 05:25:43;;;;;;;2.70;2.50;;;;;;;19.83;56.57;101035.59;5072774;28;20697;-73
2022/07/19 05:28:09;;;;;;;2.70;1.90;;;;;;;19.95;56.25;101038.59;5072769;28;20224;-73
2022/07/19 05:30:36;;;;;;;2.27;1.90;;;;;;;20.07;55.88;101053.88;5072742;28;20205;-73
2022/07/19 05:33:02;;;;;;;2.00;1.80;;;;;;;20.07;56.20;101053.88;5072665;28;20229;-73
2022/07/19 05:35:29;;;;;;;2.47;1.90;;;;;;;20.12;56.10;101057.19;5072681;28;20201;-73
2022/07/19 05:37:55;;;;;;;3.23;2.10;;;;;;;20.13;56.81;101047.44;5072802;28;20209;-73
2022/07/19 05:40:23;;;;;;;4.13;1.77;;;;;;;20.21;56.68;101040.81;5072925;28;20570;-73
2022/07/19 05:42:49;;;;;;;2.70;1.90;;;;;;;20.22;56.76;101042.53;5072662;28;20712;-73
2022/07/19 05:45:16;;;;;;;2.40;1.93;;;;;;;20.29;56.54;101035.13;5072103;28;20209;-73
2022/07/19 05:47:42;;;;;;;2.40;1.80;;;;;;;20.32;56.06;101052.69;5072746;28;20240;-73
2022/07/19 05:50:09;;;;;;;2.67;1.80;;;;;;;20.40;56.20;101056.66;5072501;28;20225;-73
2022/07/19 05:52:35;;;;;;;2.33;1.73;;;;;;;20.51;56.28;101056.13;5071818;28;20717;-74
2022/07/19 05:55:02;;;;;;;3.03;2.23;;;;;;;20.57;57.27;101037.25;5072353;28;20208;-72
2022/07/19 05:57:30;;;;;;;3.77;2.47;;;;;;;20.65;56.95;101028.91;5072557;28;20268;-73
2022/07/19 05:59:56;;;;;;;4.97;2.20;;;;;;;20.78;56.35;101037.97;5071925;28;20227;-72
2022/07/19 06:02:23;;;;;;;2.07;1.90;;;;;;;20.89;55.46;101074.56;5072606;28;20204;-74
2022/07/19 06:04:49;;;;;;;4.70;2.93;;;;;;;20.91;55.00;101098.34;5071941;28;20205;-73
2022/07/19 06:07:15;;;;;;;2.77;2.00;;;;;;;21.03;54.82;101095.09;5072337;28;20262;-74
2022/07/19 06:09:42;;;;;;;3.70;2.30;;;;;;;21.13;54.74;101111.38;5072159;28;20225;-74
2022/07/19 06:12:09;;;;;;;3.53;2.30;;;;;;;21.23;55.49;101104.66;5072224;28;20204;-74
2022/07/19 06:14:36;;;;;;;3.50;2.67;;;;;;;21.30;55.62;101089.25;5071805;28;20725;-74
2022/07/19 06:17:04;;;;;;;2.83;2.37;;;;;;;21.37;55.32;101090.66;5072096;28;20213;-74
2022/07/19 06:19:31;;;;;;;4.10;2.20;;;;;;;21.42;55.45;101092.09;5072274;28;20264;-74
2022/07/19 06:21:57;;;;;;;2.37;2.17;;;;;;;21.53;55.79;101086.25;5072423;28;20262;-73
2022/07/19 06:24:24;;;;;;;7.23;2.43;;;;;;;21.58;56.59;101064.72;5072005;28;20246;-73
2022/07/19 06:26:50;;;;;;;5.70;2.50;;;;;;;21.66;56.17;101056.34;5071720;28;20204;-73
2022/07/19 06:29:16;;;;;;;3.10;2.87;;;;;;;21.65;56.40;101067.94;5071959;28;20274;-73
2022/07/19 06:31:44;;;;;;;2.40;2.20;;;;;;;21.71;55.95;101072.91;5071920;28;20201;-73
2022/07/19 06:34:11;;;;;;;3.97;2.40;;;;;;;21.73;56.67;101063.03;5071919;28;20221;-74
2022/07/19 06:36:37;;;;;;;2.83;2.63;;;;;;;21.87;55.83;101065.78;5071377;28;20205;-74
2022/07/19 06:39:03;;;;;;;2.70;2.27;;;;;;;21.93;55.31;101093.81;5071946;28;20225;-74
2022/07/19 06:41:30;;;;;;;4.90;2.40;;;;;;;21.97;55.99;101088.22;5071669;28;20725;-74
2022/07/19 06:43:56;;;;;;;3.17;2.20;;;;;;;22.09;54.86;101109.75;5071193;28;20557;-74
2022/07/19 06:46:23;;;;;;;2.50;2.30;;;;;;;22.10;55.47;101107.03;5070857;28;20695;-77
2022/07/19 06:48:51;;;;;;;3.60;2.20;;;;;;;22.17;55.20;101129.66;5071874;28;20228;-74
2022/07/19 06:51:17;;;;;;;3.00;2.13;;;;;;;22.27;55.33;101114.06;5069799;28;20227;-75
2022/07/19 06:53:44;;;;;;;2.40;2.20;;;;;;;22.32;54.55;101117.31;5071373;28;20216;-76
2022/07/19 06:56:10;;;;;;;3.40;2.30;;;;;;;22.46;54.23;101134.28;5070718;28;20262;-74
2022/07/19 06:58:36;;;;;;;3.70;2.40;;;;;;;22.49;54.57;101145.59;5071234;28;20228;-76
2022/07/19 07:01:03;;;;;;;5.00;2.80;;;;;;;22.56;54.41;101133.66;5072231;28;20642;-76
2022/07/19 07:03:30;;;;;;;2.50;2.30;;;;;;;22.62;54.27;101145.75;5071823;28;20215;-76
2022/07/19 07:05:58;;;;;;;3.47;2.40;;;;;;;22.70;53.79;101148.81;5075596;28;20254;-77
2022/07/19 07:08:24;;;;;;;3.47;2.13;;;;;;;22.83;53.22;101148.94;5075487;28;20616;-75
2022/07/19 07:10:51;;;;;;;4.10;2.43;;;;;;;22.91;53.01;101168.03;5075191;28;20258;-76
2022/07/19 07:13:17;;;;;;;5.67;2.67;;;;;;;22.94;52.86;101181.13;5075110;28;20270;-76
2022/07/19 07:15:45;;;;;;;2.77;2.33;;;;;;;23.05;52.45;101183.19;5074658;28;20201;-76
2022/07/19 07:18:11;;;;;;;2.50;2.30;;;;;;;23.14;51.73;101221.75;5074664;28;20678;-75
2022/07/19 07:20:38;;;;;;;3.00;2.30;;;;;;;23.25;51.59;101231.75;5075055;28;20212;-76
2022/07/19 07:23:06;;;;;;;2.43;2.23;;;;;;;23.44;51.06;101223.53;5074390;28;20233;-76
2022/07/19 07:25:32;;;;;;;3.20;2.20;;;;;;;23.57;49.43;101253.81;5074541;28;20205;-76
2022/07/19 07:27:59;;;;;;;2.40;2.20;;;;;;;23.76;49.01;101272.19;5074519;28;20720;-76
2022/07/19 07:30:25;;;;;;;5.57;2.57;;;;;;;23.88;48.80;101283.94;5074785;28;20200;-76
2022/07/19 07:32:52;;;;;;;4.00;2.57;;;;;;;24.01;48.85;101289.41;5073375;28;20200;-76
2022/07/19 07:35:18;;;;;;;3.37;2.20;;;;;;;24.03;46.54;101323.03;5074513;28;20204;-76
2022/07/19 07:37:45;;;;;;;5.37;2.77;;;;;;;24.10;46.83;101353.72;5074527;28;20213;-76
2022/07/19 07:40:13;;;;;;;2.60;2.40;;;;;;;24.12;46.13;101359.81;5074523;28;20219;-76
2022/07/19 07:42:40;;;;;;;3.67;2.83;;;;;;;24.15;46.23;101374.78;5074931;28;20197;-76
2022/07/19 07:45:09;;;;;;;3.57;2.20;;;;;;;24.25;46.99;101370.56;5074197;28;20197;-77
2022/07/19 07:47:36;;;;;;;3.43;2.50;;;;;;;24.44;45.60;101369.44;5074493;28;20688;-76
2022/07/19 07:50:03;;;;;;;2.60;2.33;;;;;;;24.54;43.91;101368.81;5074421;28;20221;-76
2022/07/19 07:52:30;;;;;;;2.67;2.23;;;;;;;24.66;44.30;101446.38;5074768;28;20201;-76
2022/07/19 07:54:56;;;;;;;4.47;2.40;;;;;;;24.71;43.43;101452.31;5074357;28;20278;-76
2022/07/19 07:57:24;;;;;;;4.20;2.50;;;;;;;24.77;44.37;101444.75;5074491;28;20201;-77
2022/07/19 07:59:50;;;;;;;3.20;2.73;;;;;;;24.89;45.00;101419.09;5074201;28;20213;-77
2022/07/19 08:02:17;;;;;;;5.00;2.40;;;;;;;24.98;45.89;101390.97;5074674;28;20201;-76
2022/07/19 08:04:43;;;;;;;5.80;2.77;;;;;;;25.14;45.57;101372.97;5073904;28;20789;-77
2022/07/19 08:07:10;;;;;;;4.67;2.93;;;;;;;25.24;43.96;101389.28;5074147;28;20246;-77
2022/07/19 08:09:36;;;;;;;3.30;2.87;;;;;;;25.35;44.58;101420.66;5074160;28;20216;-77
2022/07/19 08:12:03;;;;;;;8.73;2.87;;;;;;;25.46;45.06;101394.06;5074506;28;20258;-77
2022/07/19 08:14:31;;;;;;;3.17;2.37;;;;;;;25.60;45.03;101392.31;5074093;28;20225;-77
2022/07/19 08:16:58;;;;;;;6.87;2.80;;;;;;;25.70;44.06;101437.03;5072989;28;20743;-77
2022/07/19 08:19:24;;;;;;;4.47;2.43;;;;;;;25.83;42.86;101444.25;5073990;28;20220;-77
2022/07/19 08:21:51;;;;;;;4.17;2.93;;;;;;;26.01;44.48;101436.84;5074257;28;20201;-76
2022/07/19 08:24:17;;;;;;;4.73;2.60;;;;;;;26.15;42.18;101408.16;5074225;28;20193;-76
2022/07/19 08:26:44;;;;;;;4.83;3.10;;;;;;;26.28;41.45;101474.19;5073999;28;20227;-76
2022/07/19 08:29:11;;;;;;;4.23;2.63;;;;;;;26.35;39.59;101539.75;5073881;28;20213;-75
2022/07/19 08:31:39;;;;;;;4.43;2.67;;;;;;;26.41;39.05;101562.59;5073354;28;20565;-75
2022/07/19 08:34:05;;;;;;;7.40;3.10;;;;;;;26.62;40.05;101558.47;5073551;28;20235;-76
2022/07/19 08:36:31;;;;;;;3.73;2.17;;;;;;;26.73;38.50;101576.47;5073430;28;20205;-76
2022/07/19 08:38:58;;;;;;;4.10;2.77;;;;;;;26.79;38.30;101602.00;5074308;28;20286;-77
2022/07/19 08:41:24;;;;;;;4.33;2.60;;;;;;;26.82;37.64;101599.09;5073510;28;20679;-77
2022/07/19 08:43:51;;;;;;;2.77;2.50;;;;;;;26.88;38.47;101607.56;5074036;28;20208;-78
2022/07/19 08:46:20;;;;;;;3.73;2.57;;;;;;;26.89;37.51;101613.78;5072975;28;20670;-77
2022/07/19 08:48:49;;;;;;;6.70;2.53;;;;;;;26.92;38.67;101632.34;5074053;28;20232;-77
2022/07/19 08:51:19;;;;;;;4.23;2.43;;;;;;;27.00;39.09;101578.22;5073804;28;20735;-77
2022/07/19 08:53:46;;;;;;;3.00;2.40;;;;;;;27.07;37.64;101598.25;5073928;28;20226;-77
2022/07/19 08:58:56;;;;;;;6.30;2.50;;;;;;;27.23;39.12;101598.84;5073509;28;20307;-77
2022/07/19 09:01:23;;;;;;;4.10;3.07;;;;;;;27.31;37.24;101615.31;5072919;28;20227;-77
2022/07/19 09:04:22;;;;;;;6.50;2.80;;;;;;;27.45;37.73;101619.69;5073357;28;20614;-77
2022/07/19 09:06:50;;;;;;;3.90;2.40;;;;;;;27.53;36.81;101629.84;4991406;28;20203;-76
2022/07/19 09:09:19;;;;;;;2.50;2.30;;;;;;;27.62;37.18;101620.31;5055773;28;20742;-76
2022/07/19 09:11:50;;;;;;;3.03;2.73;;;;;;;27.68;35.61;101623.38;5073020;28;20204;-76
2022/07/19 09:14:18;;;;;;;3.63;2.13;;;;;;;27.73;35.62;101645.38;5073327;28;20250;-76
2022/07/19 09:17:01;;;;;;;3.20;2.50;;;;;;;27.84;35.13;101663.38;5072573;28;20293;-76
2022/07/19 09:19:30;;;;;;;3.23;2.30;;;;;;;27.95;35.39;101669.81;5073157;28;20225;-76
2022/07/19 09:22:01;;;;;;;4.40;2.80;;;;;;;28.06;35.81;101669.91;5072945;28;20282;-76
2022/07/19 09:24:29;;;;;;;3.00;2.53;;;;;;;28.17;35.86;101655.72;5073227;28;20235;-76
2022/07/19 09:27:01;;;;;;;3.87;2.50;;;;;;;28.48;35.93;101622.88;5072081;28;20200;-76
2022/07/19 09:29:28;;;;;;;3.90;2.43;;;;;;;28.64;35.12;101648.59;5072756;28;20225;-76
2022/07/19 09:32:07;;;;;;;3.90;2.37;;;;;;;28.62;32.52;101662.16;5073013;28;20209;-77
2022/07/19 09:34:37;;;;;;;2.80;2.60;;;;;;;28.80;32.61;101736.97;5072613;28;20687;-76
2022/07/19 09:37:11;;;;;;;2.90;2.70;;;;;;;28.80;30.79;101724.41;5073100;28;20205;-77
2022/07/19 09:39:41;;;;;;;2.67;2.20;;;;;;;28.99;33.82;101757.94;5072908;28;20228;-76
2022/07/19 09:42:08;;;;;;;2.83;2.63;;;;;;;29.29;32.36;101739.47;5072857;28;20200;-76
2022/07/19 09:44:35;;;;;;;2.80;2.47;;;;;;;29.39;33.79;101718.09;5072743;28;20254;-77
2022/07/19 09:47:01;;;;;;;3.77;2.27;;;;;;;29.38;32.95;101713.69;5072108;28;20342;-76
2022/07/19 09:49:28;;;;;;;5.67;2.10;;;;;;;29.42;33.83;101707.09;5072746;28;20221;-77
2022/07/19 09:51:56;;;;;;;3.07;2.00;;;;;;;29.57;31.76;101709.53;5072216;28;20204;-77
2022/07/19 09:54:25;;;;;;;2.50;2.23;;;;;;;29.61;30.45;101748.69;5072534;28;20250;-76
2022/07/19 09:56:52;;;;;;;2.97;2.20;;;;;;;29.56;30.47;101786.75;5072197;28;20686;-76
2022/07/19 09:59:20;;;;;;;3.47;1.83;;;;;;;29.73;29.38;101798.03;5072361;28;20274;-76
2022/07/19 10:01:48;;;;;;;2.60;1.93;;;;;;;29.83;31.33;101758.63;5071889;28;20212;-76
2022/07/19 10:04:16;;;;;;;1.93;1.80;;;;;;;30.01;26.00;101799.38;5072135;28;20209;-76
2022/07/19 10:06:44;;;;;;;2.10;1.90;;;;;;;30.18;28.76;101871.63;5071280;28;20255;-76
2022/07/19 10:09:13;;;;;;;2.07;1.80;;;;;;;30.28;28.32;101810.63;5072041;28;20228;-76
2022/07/19 10:11:40;;;;;;;2.63;1.50;;;;;;;30.39;29.17;101830.53;5071781;28;20584;-77
2022/07/19 10:14:07;;;;;;;1.67;1.50;;;;;;;30.47;29.36;101817.28;5072357;28;20298;-77
2022/07/19 10:16:46;;;;;;;2.40;1.77;;;;;;;30.44;26.59;101798.66;5071348;28;20705;-77
2022/07/19 10:19:17;;;;;;;3.63;1.93;;;;;;;30.54;28.53;101818.47;5072103;28;20717;-77
2022/07/19 10:21:45;;;;;;;2.83;2.30;;;;;;;30.59;30.43;101780.38;5072119;28;20208;-76
2022/07/19 10:24:13;;;;;;;3.03;2.57;;;;;;;30.64;30.83;101754.75;5071984;28;20209;-77
2022/07/19 10:26:41;;;;;;;5.10;2.23;;;;;;;30.64;28.18;101748.50;5071704;28;20208;-77
2022/07/19 10:29:10;;;;;;;2.20;2.10;;;;;;;30.68;28.83;101799.34;5072340;28;20255;-76
2022/07/19 10:31:37;;;;;;;2.30;2.13;;;;;;;30.72;27.44;101799.91;5071828;28;20205;-76
2022/07/19 10:34:05;;;;;;;2.10;2.00;;;;;;;30.72;28.66;101802.63;5071700;28;20229;-76
2022/07/19 10:36:33;;;;;;;2.03;1.83;;;;;;;30.68;26.05;101712.19;5071566;28;20200;-76
2022/07/19 10:39:26;;;;;;;1.53;1.43;;;;;;;30.81;27.95;101774.06;5071532;28;20231;-75
2022/07/19 10:42:22;;;;;;;1.93;1.70;;;;;;;30.84;26.95;101784.56;5073127;28;20232;-74
2022/07/19 10:45:14;;;;;;;2.30;1.80;;;;;;;30.87;26.38;101812.13;5027703;28;20201;-75
2022/07/19 10:48:01;;;;;;;1.87;1.77;;;;;;;31.02;28.50;101782.19;5071905;28;20216;-75
2022/07/19 10:50:56;;;;;;;2.17;1.60;;;;;;;31.07;26.45;101767.31;5072567;28;20205;-76
2022/07/19 10:53:57;;;;;;;2.77;1.70;;;;;;;31.29;26.49;101795.16;5052105;28;20212;-75
2022/07/19 10:56:28;;;;;;;1.77;1.60;;;;;;;31.43;27.99;101802.94;5071735;28;20211;-76
2022/07/19 10:58:56;;;;;;;2.00;1.80;;;;;;;31.51;26.86;101769.06;5066936;28;20232;-76
2022/07/19 11:01:24;;;;;;;2.47;2.17;;;;;;;31.65;27.02;101749.81;5067807;28;20250;-75
2022/07/19 11:03:53;;;;;;;3.17;2.00;;;;;;;31.67;26.87;101789.22;5071209;28;20204;-76
2022/07/19 11:06:21;;;;;;;2.60;2.40;;;;;;;31.75;27.02;101783.09;5070934;28;20204;-75
2022/07/19 11:08:47;;;;;;;2.93;2.27;;;;;;;31.82;26.95;101778.03;5071320;28;20294;-76
2022/07/19 11:11:16;;;;;;;2.27;2.17;;;;;;;31.93;26.89;101783.31;5071052;28;20258;-77
2022/07/19 11:13:47;;;;;;;4.20;2.67;;;;;;;31.99;25.98;101772.00;5071408;28;20245;-76
2022/07/19 11:16:13;;;;;;;2.97;2.30;;;;;;;32.06;26.51;101777.75;5070423;28;20224;-75
2022/07/19 11:18:40;;;;;;;2.50;2.20;;;;;;;32.12;24.85;101728.56;5070293;28;20247;-75
2022/07/19 11:21:08;;;;;;;2.60;2.40;;;;;;;32.39;27.20;101751.34;5071180;28;20213;-76
2022/07/19 11:23:36;;;;;;;2.20;2.10;;;;;;;32.53;25.42;101769.88;5067584;28;20205;-76
2022/07/19 11:26:07;;;;;;;2.47;1.90;;;;;;;32.68;24.79;101773.03;5070538;28;20201;-75
2022/07/19 11:28:34;;;;;;;2.87;1.90;;;;;;;32.89;25.80;101783.75;5071336;28;20746;-75
2022/07/19 11:31:11;;;;;;;3.73;2.33;;;;;;;33.14;23.67;101781.47;5070761;28;20209;-75